createdAt,value
2022-10-18T00:03:18.398Z,8.27
2022-10-18T00:07:18.816Z,9.73
2022-10-18T00:11:20.108Z,7.47
2022-10-18T00:15:21.059Z,8.68
2022-10-18T00:23:26.508Z,8.55
2022-10-18T00:27:29.801Z,9.77
2022-10-18T00:31:31.596Z,10.93
2022-10-18T00:35:34.038Z,9.43
2022-10-18T00:39:35.219Z,10.57
2022-10-18T00:43:55.088Z,8.77
2022-10-18T00:47:59.917Z,10.23
2022-10-18T00:52:04.275Z,10.25
2022-10-18T00:56:05.345Z,8.55
2022-10-18T01:00:10.033Z,8.90
2022-10-18T01:04:10.979Z,6.75
2022-10-18T01:08:45.375Z,9.63
2022-10-18T01:13:24.827Z,6.28
2022-10-18T01:17:38.446Z,9.23
2022-10-18T01:22:07.366Z,8.30
2022-10-18T01:26:59.758Z,10.82
2022-10-18T01:31:16.703Z,8.05
2022-10-18T01:35:20.101Z,6.43
2022-10-18T01:39:25.194Z,8.90
2022-10-18T01:43:27.968Z,12.20
2022-10-18T01:47:31.089Z,10.52
2022-10-18T01:51:33.725Z,11.98
2022-10-18T01:55:44.265Z,11.73
2022-10-18T01:59:50.617Z,9.95
2022-10-18T02:04:23.211Z,11.40
2022-10-18T02:09:10.071Z,14.07
2022-10-18T02:13:15.313Z,12.48
2022-10-18T02:17:20.275Z,15.63
2022-10-18T02:21:23.419Z,13.18
2022-10-18T02:25:28.326Z,16.15
2022-10-18T02:29:29.594Z,17.65
2022-10-18T02:33:53.547Z,15.05
2022-10-18T02:38:00.556Z,15.07
2022-10-18T02:42:01.407Z,15.20
2022-10-18T02:46:03.221Z,17.27
2022-10-18T02:50:04.238Z,12.52
2022-10-18T02:58:05.128Z,15.73
2022-10-18T03:02:05.599Z,18.50
2022-10-18T03:06:06.223Z,17.38
2022-10-18T03:10:06.884Z,16.63
2022-10-18T03:14:07.141Z,13.82
2022-10-18T03:18:07.586Z,15.63
2022-10-18T03:22:08.827Z,15.43
2022-10-18T03:25:11.125Z,16.17
2022-10-18T03:28:59.033Z,18.10
2022-10-18T03:32:07.970Z,20.40
2022-10-18T03:35:17.351Z,19.05
2022-10-18T03:38:19.816Z,19.17
2022-10-18T03:41:24.282Z,21.52
2022-10-18T03:44:26.053Z,19.30
2022-10-18T03:47:28.033Z,20.02
2022-10-18T03:50:30.985Z,20.75
2022-10-18T03:53:32.632Z,21.08
2022-10-18T03:56:34.575Z,19.15
2022-10-18T03:59:37.242Z,16.08
2022-10-18T04:02:39.231Z,14.50
2022-10-18T04:05:40.876Z,16.63
2022-10-18T04:08:42.784Z,18.70
2022-10-18T04:11:44.736Z,16.85
2022-10-18T04:15:53.918Z,17.80
2022-10-18T04:19:54.309Z,17.85
2022-10-18T04:23:54.555Z,16.27
2022-10-18T04:27:54.774Z,16.55
2022-10-18T04:31:54.934Z,15.77
2022-10-18T04:35:55.176Z,14.67
2022-10-18T04:39:55.633Z,14.23
2022-10-18T04:43:55.821Z,18.63
2022-10-18T04:47:56.351Z,18.55
2022-10-18T04:51:56.648Z,18.88
2022-10-18T04:55:56.816Z,20.20
2022-10-18T04:59:57.771Z,20.42
2022-10-18T05:03:57.954Z,21.13
2022-10-18T05:07:58.377Z,22.55
2022-10-18T05:11:58.292Z,20.63
2022-10-18T05:16:00.382Z,19.85
2022-10-18T05:20:02.312Z,20.92
2022-10-18T05:24:02.711Z,17.83
2022-10-18T05:28:10.550Z,18.30
2022-10-18T05:32:16.394Z,21.73
2022-10-18T05:36:16.753Z,17.10
2022-10-18T05:40:17.258Z,17.98
2022-10-18T05:44:17.524Z,20.10
2022-10-18T05:48:17.961Z,17.00
2022-10-18T05:52:18.394Z,19.02
2022-10-18T05:56:18.643Z,14.95
2022-10-18T06:00:19.043Z,14.80
2022-10-18T06:04:19.471Z,14.20
2022-10-18T06:08:20.094Z,15.48
2022-10-18T06:12:20.687Z,14.55
2022-10-18T06:16:22.255Z,15.70
2022-10-18T06:20:22.788Z,13.82
2022-10-18T06:24:23.603Z,18.35
2022-10-18T06:28:24.448Z,15.02
2022-10-18T06:32:25.223Z,14.07
2022-10-18T06:36:25.844Z,16.10
2022-10-18T06:40:26.472Z,14.75
2022-10-18T06:44:26.899Z,20.75
2022-10-18T06:48:27.121Z,15.55
2022-10-18T06:52:27.687Z,18.17
2022-10-18T06:56:29.615Z,17.80
2022-10-18T07:00:30.070Z,17.85
2022-10-18T07:04:33.283Z,15.75
2022-10-18T07:08:34.121Z,14.55
2022-10-18T07:16:35.265Z,15.37
2022-10-18T07:24:37.008Z,12.53
2022-10-18T07:28:41.078Z,11.63
2022-10-18T07:32:41.461Z,13.95
2022-10-18T07:36:42.795Z,14.98
2022-10-18T07:40:43.174Z,14.32
2022-10-18T07:44:44.281Z,18.55
2022-10-18T07:48:44.701Z,22.10
2022-10-18T07:52:45.179Z,20.60
2022-10-18T07:56:46.176Z,19.25
2022-10-18T08:04:46.677Z,15.60
2022-10-18T08:08:48.116Z,21.33
2022-10-18T08:12:48.356Z,21.55
2022-10-18T08:15:50.525Z,23.80
2022-10-18T08:18:58.182Z,24.00
2022-10-18T08:23:00.324Z,26.00
2022-10-18T08:27:02.853Z,29.35
2022-10-18T08:31:04.194Z,29.40
2022-10-18T08:34:54.995Z,25.05
2022-10-18T08:41:34.695Z,30.38
2022-10-18T08:44:49.535Z,28.98
2022-10-18T08:47:56.690Z,30.80
2022-10-18T08:51:00.444Z,29.95
2022-10-18T08:54:26.747Z,26.27
2022-10-18T08:57:38.224Z,28.27
2022-10-18T09:01:26.880Z,27.73
2022-10-18T09:05:45.843Z,25.40
2022-10-18T09:09:28.111Z,25.90
2022-10-18T09:13:05.353Z,29.25
2022-10-18T09:16:15.423Z,27.33
2022-10-18T09:19:45.831Z,25.02
2022-10-18T09:23:20.091Z,29.75
2022-10-18T09:27:24.993Z,25.85
2022-10-18T09:31:43.935Z,26.45
2022-10-18T09:35:27.994Z,28.83
2022-10-18T09:38:34.772Z,30.80
2022-10-18T09:41:47.622Z,29.55
2022-10-18T09:45:22.495Z,28.73
2022-10-18T09:48:29.564Z,27.15
2022-10-18T09:51:36.764Z,30.38
2022-10-18T09:55:06.587Z,28.90
2022-10-18T09:58:13.945Z,28.87
2022-10-18T10:01:30.578Z,31.88
2022-10-18T10:05:31.199Z,24.23
2022-10-18T10:09:46.148Z,27.83
2022-10-18T10:13:48.548Z,25.88
2022-10-18T10:18:04.652Z,27.00
2022-10-18T10:22:06.604Z,24.40
2022-10-18T10:26:21.017Z,24.50
2022-10-18T10:30:40.411Z,19.40
2022-10-18T10:34:44.974Z,17.33
2022-10-18T10:39:11.974Z,20.77
2022-10-18T10:43:36.950Z,16.60
2022-10-18T10:47:37.870Z,19.52
2022-10-18T10:52:08.700Z,18.52
2022-10-18T10:56:45.204Z,17.83
2022-10-18T11:00:52.986Z,18.20
2022-10-18T11:04:55.915Z,15.60
2022-10-18T11:09:04.150Z,16.27
2022-10-18T11:13:23.851Z,20.83
2022-10-18T11:17:08.498Z,15.60
2022-10-18T11:20:43.141Z,19.10
2022-10-18T11:23:45.963Z,19.95
2022-10-18T11:27:14.858Z,18.58
2022-10-18T11:30:50.154Z,22.10
2022-10-18T11:34:14.551Z,24.40
2022-10-18T11:37:39.697Z,22.75
2022-10-18T11:40:49.368Z,26.27
2022-10-18T11:44:04.198Z,20.23
2022-10-18T11:47:17.070Z,20.35
2022-10-18T11:52:03.300Z,18.25
2022-10-18T11:56:21.324Z,17.83
2022-10-18T12:00:50.992Z,15.38
2022-10-18T12:09:39.474Z,19.85
2022-10-18T12:14:13.822Z,14.35
2022-10-18T12:18:19.328Z,14.13
2022-10-18T12:22:28.663Z,12.45
2022-10-18T12:26:33.269Z,15.52
2022-10-18T12:30:51.029Z,16.38
2022-10-18T12:35:24.372Z,14.70
2022-10-18T12:38:32.488Z,9.15
2022-10-18T12:42:25.413Z,13.43
2022-10-18T12:46:21.343Z,11.55
2022-10-18T12:50:39.282Z,10.85
2022-10-18T12:54:40.566Z,7.32
2022-10-18T12:58:53.091Z,8.90
2022-10-18T13:03:13.532Z,8.68
2022-10-18T13:07:22.231Z,9.07
2022-10-18T13:11:36.338Z,8.60
2022-10-18T13:16:25.072Z,10.45
2022-10-18T13:20:50.051Z,8.57
2022-10-18T13:25:17.532Z,8.38
2022-10-18T13:29:51.710Z,6.40
2022-10-18T13:34:17.830Z,10.98
2022-10-18T13:38:25.536Z,6.78
2022-10-18T13:42:32.372Z,12.13
2022-10-18T13:46:32.992Z,9.75
2022-10-18T13:50:42.525Z,10.23
2022-10-18T13:55:14.876Z,5.95
2022-10-18T13:59:39.283Z,7.18
2022-10-18T14:04:12.357Z,5.32
2022-10-18T14:12:45.094Z,5.43
2022-10-18T14:16:50.075Z,6.45
2022-10-18T14:21:27.404Z,4.15
2022-10-18T14:25:36.124Z,5.57
2022-10-18T14:29:36.799Z,6.57
2022-10-18T14:33:42.969Z,6.07
2022-10-18T14:37:46.915Z,6.40
2022-10-18T14:41:56.541Z,5.38
2022-10-18T14:46:08.098Z,2.95
2022-10-18T14:50:20.744Z,4.25
2022-10-18T14:54:30.773Z,5.47
2022-10-18T14:58:37.349Z,5.82
2022-10-18T15:02:38.499Z,6.18
2022-10-18T15:06:50.570Z,4.85
2022-10-18T15:10:51.193Z,5.63
2022-10-18T15:19:02.120Z,4.18
2022-10-18T15:23:24.103Z,4.30
2022-10-18T15:27:31.593Z,3.25
2022-10-18T15:31:37.451Z,3.42
2022-10-18T15:35:39.308Z,4.45
2022-10-18T15:39:39.555Z,4.80
2022-10-18T15:43:40.023Z,8.00
2022-10-18T15:47:40.540Z,4.78
2022-10-18T15:51:56.845Z,4.25
2022-10-18T15:55:59.644Z,5.55
2022-10-18T16:00:04.895Z,6.25
2022-10-18T16:04:20.177Z,5.32
2022-10-18T16:08:25.286Z,4.80
2022-10-18T16:12:25.553Z,5.43
2022-10-18T16:16:27.270Z,2.22
2022-10-18T16:20:27.915Z,3.83
2022-10-18T16:24:29.304Z,1.98
2022-10-18T16:28:32.919Z,4.85
2022-10-18T16:32:33.917Z,2.95
2022-10-18T16:36:38.267Z,3.08
2022-10-18T16:40:41.151Z,3.75
2022-10-18T16:44:43.193Z,4.85
2022-10-18T16:48:43.964Z,5.63
2022-10-18T16:52:44.419Z,2.63
2022-10-18T16:56:44.871Z,5.78
2022-10-18T17:00:46.930Z,2.30
2022-10-18T17:04:47.573Z,2.92
2022-10-18T17:08:48.906Z,3.10
2022-10-18T17:12:50.802Z,2.92
2022-10-18T17:16:54.823Z,6.60
2022-10-18T17:20:59.677Z,6.22
2022-10-18T17:25:01.533Z,4.63
2022-10-18T17:29:04.106Z,5.07
2022-10-18T17:33:08.375Z,4.78
2022-10-18T17:37:09.443Z,4.82
2022-10-18T17:41:10.667Z,2.67
2022-10-18T17:45:13.414Z,6.38
2022-10-18T17:49:16.233Z,4.15
2022-10-18T17:53:18.476Z,6.18
2022-10-18T17:57:18.826Z,4.97
2022-10-18T18:01:20.966Z,2.95
2022-10-18T18:05:24.404Z,4.18
2022-10-18T18:09:24.727Z,5.15
2022-10-18T18:13:25.173Z,20.88
2022-10-18T18:17:33.998Z,2.22
2022-10-18T18:21:35.617Z,3.75
2022-10-18T18:25:39.185Z,4.95
2022-10-18T18:29:39.856Z,4.65
2022-10-18T18:33:40.845Z,2.47
2022-10-18T18:37:41.499Z,5.45
2022-10-18T18:41:42.121Z,5.25
2022-10-18T18:45:49.782Z,7.80
2022-10-18T18:49:51.787Z,5.57
2022-10-18T18:53:55.208Z,4.43
2022-10-18T18:57:56.394Z,5.15
2022-10-18T19:06:10.273Z,5.55
2022-10-18T19:10:11.741Z,4.22
2022-10-18T19:14:13.351Z,7.78
2022-10-18T19:18:13.791Z,5.65
2022-10-18T19:22:14.997Z,6.27
2022-10-18T19:26:47.459Z,3.08
2022-10-18T19:30:50.098Z,4.45
2022-10-18T19:34:50.874Z,3.35
2022-10-18T19:38:51.372Z,2.53
2022-10-18T19:46:52.679Z,3.88
2022-10-18T19:50:52.766Z,4.82
2022-10-18T19:54:53.759Z,4.97
2022-10-18T19:58:54.572Z,4.03
2022-10-18T20:02:57.616Z,3.97
2022-10-18T20:07:00.311Z,5.60
2022-10-18T20:11:01.868Z,4.47
2022-10-18T20:15:02.425Z,3.72
2022-10-18T20:19:04.495Z,4.15
2022-10-18T20:23:04.989Z,3.88
2022-10-18T20:27:09.497Z,8.55
2022-10-18T20:31:18.336Z,10.18
2022-10-18T20:35:18.774Z,9.23
2022-10-18T20:39:18.993Z,7.07
2022-10-18T20:43:19.095Z,7.88
2022-10-18T20:47:19.310Z,10.03
2022-10-18T20:51:19.955Z,6.97
2022-10-18T20:55:20.195Z,5.60
2022-10-18T20:59:20.353Z,5.10
2022-10-18T21:03:20.547Z,5.90
2022-10-18T21:12:36.680Z,5.38
2022-10-18T21:16:37.463Z,11.70
2022-10-18T21:20:37.684Z,7.40
2022-10-18T21:24:37.940Z,10.23
2022-10-18T21:28:38.118Z,7.33
2022-10-18T21:32:39.271Z,6.00
2022-10-18T21:36:40.079Z,6.85
2022-10-18T21:40:44.472Z,10.05
2022-10-18T21:44:48.863Z,7.10
2022-10-18T21:48:50.363Z,6.72
2022-10-18T21:52:50.780Z,9.25
2022-10-18T21:56:51.750Z,7.50
2022-10-18T22:00:51.913Z,9.43
2022-10-18T22:04:53.211Z,7.80
2022-10-18T22:08:54.857Z,7.72
2022-10-18T22:12:55.596Z,6.40
2022-10-18T22:16:59.354Z,6.05
2022-10-18T22:21:01.546Z,6.63
2022-10-18T22:25:06.431Z,9.70
2022-10-18T22:29:14.164Z,6.95
2022-10-18T22:33:14.443Z,8.60
2022-10-18T22:37:14.850Z,5.43
2022-10-18T22:41:15.273Z,7.38
2022-10-18T22:45:15.660Z,7.53
2022-10-18T22:49:15.864Z,7.35
2022-10-18T22:53:16.225Z,7.13
2022-10-18T22:57:18.000Z,12.50
2022-10-18T23:01:20.133Z,5.80
2022-10-18T23:05:20.814Z,6.57
2022-10-18T23:09:21.266Z,9.88
2022-10-18T23:13:22.422Z,12.98
2022-10-18T23:21:24.510Z,5.63
2022-10-18T23:25:24.844Z,5.88
2022-10-18T23:29:24.968Z,7.13
2022-10-18T23:33:25.369Z,8.68
2022-10-18T23:37:25.877Z,10.82
2022-10-18T23:41:27.263Z,7.80
2022-10-18T23:45:27.580Z,9.18
2022-10-18T23:49:27.837Z,6.73
2022-10-18T23:53:28.878Z,5.83
2022-10-18T23:57:29.217Z,10.10
